Time;durP1;ratioP1;P1;durP2;ratioP2;P2;SDS_P1;SDS_P2;PMS_P1;PMS_P2;Temp;Humidity;BMP_temperature;BMP_pressure;BME280_temperature;BME280_humidity;BME280_pressure;Samples;Min_cycle;Max_cycle;Signal;HPM_P1;HPM_P2
2023/03/23 00:00:42;;;;;;;10.93;9.80;;;;;21.50;99343.00;;;;2079351;28;20716;-50
2023/03/23 00:01:42;;;;;;;11.90;10.60;;;;;21.50;99342.00;;;;2079242;28;20843;-50
2023/03/23 00:02:43;;;;;;;11.83;10.27;;;;;21.50;99345.00;;;;2079229;28;20767;-50
2023/03/23 00:03:44;;;;;;;11.60;10.18;;;;;21.50;99335.00;;;;2079222;28;20224;-50
2023/03/23 00:04:44;;;;;;;11.40;9.63;;;;;21.50;99338.00;;;;2079509;28;20223;-50
2023/03/23 00:05:50;;;;;;;11.90;9.40;;;;;21.50;99329.00;;;;2077757;28;20271;-50
2023/03/23 00:06:50;;;;;;;10.52;8.65;;;;;21.50;99331.00;;;;2078757;28;20678;-50
2023/03/23 00:07:51;;;;;;;10.63;9.53;;;;;21.50;99332.00;;;;2079334;28;20304;-50
2023/03/23 00:08:56;;;;;;;10.13;8.93;;;;;21.50;99333.00;;;;2078959;28;20228;-50
2023/03/23 00:09:56;;;;;;;11.95;10.05;;;;;21.50;99320.00;;;;2078624;28;20209;-50
2023/03/23 00:10:57;;;;;;;9.40;8.40;;;;;21.50;99318.00;;;;2078998;28;20705;-50
2023/03/23 00:12:04;;;;;;;12.17;9.20;;;;;21.50;99324.00;;;;2079326;28;20213;-50
2023/03/23 00:13:05;;;;;;;11.27;8.85;;;;;21.50;99326.00;;;;2079392;28;20590;-50
2023/03/23 00:14:05;;;;;;;9.63;8.00;;;;;21.50;99322.00;;;;2079534;28;20225;-51
2023/03/23 00:15:07;;;;;;;9.90;8.30;;;;;21.50;99315.00;;;;2078204;28;20631;-50
2023/03/23 00:16:17;;;;;;;9.88;8.82;;;;;21.50;99316.00;;;;2079227;28;20221;-49
2023/03/23 00:17:17;;;;;;;9.32;8.43;;;;;21.50;99318.00;;;;2078813;28;20271;-50
2023/03/23 00:18:21;;;;;;;8.60;7.70;;;;;21.50;99299.00;;;;2078339;28;20217;-49
2023/03/23 00:19:21;;;;;;;9.52;7.78;;;;;21.50;99310.00;;;;2078538;28;20232;-50
2023/03/23 00:20:24;;;;;;;8.37;7.20;;;;;21.50;99311.00;;;;2078728;28;20700;-50
2023/03/23 00:21:35;;;;;;;10.13;8.00;;;;;21.40;99310.00;;;;2078712;28;20240;-50
2023/03/23 00:22:37;;;;;;;8.82;7.03;;;;;21.40;99305.00;;;;2079317;28;20755;-50
2023/03/23 00:23:39;;;;;;;7.60;6.55;;;;;21.40;99297.00;;;;2078578;28;20301;-50
2023/03/23 00:24:39;;;;;;;8.57;7.22;;;;;21.40;99312.00;;;;2078356;28;20225;-49
2023/03/23 00:25:39;;;;;;;7.77;6.97;;;;;21.40;99306.00;;;;2078150;28;20212;-50
2023/03/23 00:26:40;;;;;;;7.80;7.00;;;;;21.40;99309.00;;;;2079085;28;20217;-50
2023/03/23 00:27:40;;;;;;;8.33;6.63;;;;;21.40;99300.00;;;;2079058;28;20232;-50
2023/03/23 00:28:41;;;;;;;7.37;6.57;;;;;21.40;99305.00;;;;2079169;28;20301;-50
2023/03/23 00:29:41;;;;;;;7.70;6.33;;;;;21.40;99308.00;;;;2079270;28;20210;-50
2023/03/23 00:30:42;;;;;;;7.60;6.80;;;;;21.40;99311.00;;;;2082233;28;20216;-50
2023/03/23 00:31:46;;;;;;;7.50;6.40;;;;;21.40;99305.00;;;;2086659;28;20236;-50
2023/03/23 00:32:48;;;;;;;7.35;6.30;;;;;21.40;99291.00;;;;2087126;28;20212;-50
2023/03/23 00:33:48;;;;;;;7.90;6.53;;;;;21.40;99290.00;;;;2087373;28;20216;-50
2023/03/23 00:34:49;;;;;;;8.20;6.77;;;;;21.40;99289.00;;;;2087330;28;20212;-49
2023/03/23 00:35:52;;;;;;;6.47;5.87;;;;;21.40;99295.00;;;;2086464;28;20732;-50
2023/03/23 00:36:56;;;;;;;8.00;6.50;;;;;21.40;99290.00;;;;2087096;28;20299;-50
2023/03/23 00:37:58;;;;;;;7.15;6.43;;;;;21.40;99291.00;;;;2087099;28;20220;-50
2023/03/23 00:38:59;;;;;;;5.63;5.03;;;;;21.40;99293.00;;;;2087590;28;20240;-50
2023/03/23 00:40:00;;;;;;;8.27;6.23;;;;;21.40;99286.00;;;;2087034;28;20300;-52
2023/03/23 00:41:02;;;;;;;6.40;5.70;;;;;21.40;99287.00;;;;2087283;28;20223;-50
2023/03/23 00:42:03;;;;;;;6.57;5.97;;;;;21.40;99279.00;;;;2087331;28;20656;-50
2023/03/23 00:43:03;;;;;;;6.90;5.60;;;;;21.40;99285.00;;;;2087238;28;20221;-50
2023/03/23 00:44:04;;;;;;;8.23;6.30;;;;;21.40;99288.00;;;;2087517;28;20574;-50
2023/03/23 00:45:10;;;;;;;7.17;5.43;;;;;21.40;99292.00;;;;2086220;28;20312;-50
2023/03/23 00:46:10;;;;;;;5.80;5.20;;;;;21.40;99291.00;;;;2086396;28;21150;-50
2023/03/23 00:47:11;;;;;;;7.13;5.77;;;;;21.40;99295.00;;;;2087437;28;20223;-50
2023/03/23 00:48:14;;;;;;;6.80;5.33;;;;;21.40;99296.00;;;;2087237;28;20213;-50
2023/03/23 00:49:16;;;;;;;7.60;5.93;;;;;21.40;99304.00;;;;2087151;28;20223;-50
2023/03/23 00:50:20;;;;;;;5.97;5.03;;;;;21.40;99309.00;;;;2087173;28;20247;-50
2023/03/23 00:51:20;;;;;;;5.97;5.30;;;;;21.40;99307.00;;;;2087376;28;20567;-50
2023/03/23 00:52:20;;;;;;;5.87;5.00;;;;;21.30;99320.00;;;;2087513;28;20302;-50
2023/03/23 00:53:21;;;;;;;6.00;5.37;;;;;21.30;99299.00;;;;2086857;28;20746;-50
2023/03/23 00:54:21;;;;;;;6.30;4.87;;;;;21.30;99294.00;;;;2086428;28;20224;-50
2023/03/23 00:55:23;;;;;;;5.90;5.20;;;;;21.30;99299.00;;;;2086006;28;20581;-50
2023/03/23 00:56:23;;;;;;;6.35;4.93;;;;;21.30;99305.00;;;;2087102;28;20632;-50
2023/03/23 00:57:24;;;;;;;5.70;5.00;;;;;21.30;99289.00;;;;2087372;28;20217;-50
2023/03/23 00:58:24;;;;;;;4.80;4.30;;;;;21.30;99294.00;;;;2087519;28;20371;-51
2023/03/23 00:59:25;;;;;;;5.00;4.40;;;;;21.30;99293.00;;;;2082967;28;20209;-53
2023/03/23 01:00:26;;;;;;;5.30;4.40;;;;;21.30;99293.00;;;;2086180;28;20602;-51
2023/03/23 01:01:26;;;;;;;6.37;4.60;;;;;21.30;99290.00;;;;2086479;28;20217;-50
2023/03/23 01:02:27;;;;;;;5.60;5.00;;;;;21.30;99277.00;;;;2087041;28;20911;-50
2023/03/23 01:03:28;;;;;;;6.40;5.07;;;;;21.30;99274.00;;;;2087222;28;20249;-50
2023/03/23 01:04:31;;;;;;;5.00;4.17;;;;;21.30;99311.00;;;;2087274;28;20577;-50
2023/03/23 01:05:35;;;;;;;5.75;5.05;;;;;21.30;99289.00;;;;2085335;28;20221;-50
2023/03/23 01:06:38;;;;;;;6.28;4.80;;;;;21.30;99280.00;;;;2087038;28;20262;-50
2023/03/23 01:07:39;;;;;;;4.35;3.95;;;;;21.30;99281.00;;;;2087204;28;20201;-50
2023/03/23 01:08:44;;;;;;;4.40;4.00;;;;;21.30;99289.00;;;;2087064;28;20201;-50
2023/03/23 01:09:45;;;;;;;4.45;3.97;;;;;21.30;99289.00;;;;2086813;28;20228;-50
2023/03/23 01:10:46;;;;;;;4.23;3.83;;;;;21.30;99278.00;;;;2086598;28;20978;-50
2023/03/23 01:11:47;;;;;;;4.50;4.10;;;;;21.30;99160.00;;;;2086807;28;20451;-50
2023/03/23 01:13:50;;;;;;;4.80;3.65;;;;;21.30;99284.00;;;;2087237;28;20254;-51
2023/03/23 01:14:51;;;;;;;4.57;3.90;;;;;21.30;99290.00;;;;2098947;28;20221;-51
2023/03/23 01:15:51;;;;;;;4.20;3.80;;;;;21.30;99286.00;;;;2102489;28;20356;-51
2023/03/23 01:16:51;;;;;;;4.87;3.90;;;;;21.30;99287.00;;;;2103237;28;20216;-51
2023/03/23 01:17:52;;;;;;;4.43;3.70;;;;;21.30;99282.00;;;;2103447;28;20315;-51
2023/03/23 01:18:52;;;;;;;3.80;3.30;;;;;21.30;99286.00;;;;2103647;28;20222;-52
2023/03/23 01:19:53;;;;;;;4.40;3.83;;;;;21.30;99284.00;;;;2103614;28;20208;-52
2023/03/23 01:20:53;;;;;;;3.80;3.40;;;;;21.10;99289.00;;;;2103294;28;20215;-51
2023/03/23 01:21:53;;;;;;;4.00;3.60;;;;;21.30;99292.00;;;;2103154;28;20215;-51
2023/03/23 01:22:59;;;;;;;4.20;3.50;;;;;21.30;99293.00;;;;2103416;28;20223;-52
2023/03/23 01:24:00;;;;;;;4.07;3.45;;;;;21.30;99294.00;;;;2103331;28;20226;-53
2023/03/23 01:25:00;;;;;;;3.60;3.30;;;;;21.30;99288.00;;;;2102378;28;20208;-51
2023/03/23 01:26:05;;;;;;;4.13;3.20;;;;;21.30;99291.00;;;;2103379;28;20216;-51
2023/03/23 01:27:06;;;;;;;3.83;2.92;;;;;21.30;99290.00;;;;2103485;28;20211;-51
2023/03/23 01:28:06;;;;;;;4.47;3.70;;;;;21.30;99292.00;;;;2102884;28;20204;-52
2023/03/23 01:29:07;;;;;;;4.57;3.30;;;;;21.30;99288.00;;;;2103647;28;20972;-52
2023/03/23 01:30:08;;;;;;;3.20;2.87;;;;;21.30;99288.00;;;;2103547;28;20707;-52
2023/03/23 01:31:14;;;;;;;3.30;2.88;;;;;21.30;99277.00;;;;2093729;28;20212;-52
2023/03/23 01:32:14;;;;;;;3.13;2.80;;;;;21.30;99287.00;;;;2095405;28;20216;-51
2023/03/23 01:33:15;;;;;;;3.97;3.20;;;;;21.00;99283.00;;;;2102474;28;20301;-51
2023/03/23 01:34:15;;;;;;;4.20;3.60;;;;;21.30;99278.00;;;;2102066;28;20215;-52
2023/03/23 01:35:15;;;;;;;3.70;3.40;;;;;21.30;99294.00;;;;2102610;28;20701;-52
2023/03/23 01:36:23;;;;;;;3.77;3.00;;;;;21.30;99294.00;;;;2103525;28;20211;-52
2023/03/23 01:37:26;;;;;;;3.60;3.10;;;;;21.30;99297.00;;;;2103421;28;20207;-51
2023/03/23 01:38:26;;;;;;;3.50;2.97;;;;;21.30;99297.00;;;;2103080;28;20207;-51
2023/03/23 01:39:26;;;;;;;3.77;3.00;;;;;21.30;99294.00;;;;2103042;28;20666;-52
2023/03/23 01:40:27;;;;;;;3.37;2.90;;;;;21.20;99289.00;;;;2103427;28;20666;-52
2023/03/23 01:41:28;;;;;;;3.75;3.35;;;;;21.30;99281.00;;;;2103190;28;20260;-52
2023/03/23 01:42:33;;;;;;;3.50;2.90;;;;;21.30;99267.00;;;;2102777;28;20212;-51
2023/03/23 01:43:34;;;;;;;3.38;3.00;;;;;21.30;99283.00;;;;2103292;28;20742;-52
2023/03/23 01:44:34;;;;;;;4.60;3.30;;;;;21.30;99298.00;;;;2102874;28;20223;-51
2023/03/23 01:45:35;;;;;;;3.53;2.80;;;;;21.20;99297.00;;;;2102773;28;20227;-50
2023/03/23 01:46:35;;;;;;;3.00;2.70;;;;;21.20;99278.00;;;;2103288;28;20276;-52
2023/03/23 01:47:35;;;;;;;3.70;2.97;;;;;21.20;99267.00;;;;2103395;28;20208;-52
2023/03/23 01:48:36;;;;;;;3.57;2.70;;;;;21.20;99248.00;;;;2094463;28;20241;-52
2023/03/23 01:49:39;;;;;;;3.15;2.85;;;;;21.20;99230.00;;;;2094574;28;20244;-51
2023/03/23 01:50:55;;;;;;;2.90;2.63;;;;;21.20;99229.00;;;;2103096;28;20211;-51
2023/03/23 01:52:00;;;;;;;3.55;2.90;;;;;21.20;99223.00;;;;2085627;28;20204;-52
2023/03/23 01:53:00;;;;;;;3.20;2.75;;;;;21.20;99211.00;;;;2088205;28;20228;-52
2023/03/23 01:54:02;;;;;;;3.47;2.77;;;;;21.20;99198.00;;;;2086126;28;21095;-52
2023/03/23 01:55:02;;;;;;;3.17;2.88;;;;;21.20;99189.00;;;;2077197;28;20858;-52
2023/03/23 01:56:02;;;;;;;2.73;2.43;;;;;21.20;99200.00;;;;2077459;28;20364;-52
2023/03/23 01:57:15;;;;;;;2.97;2.20;;;;;21.20;99203.00;;;;2077351;28;20221;-51
2023/03/23 01:58:17;;;;;;;3.50;2.78;;;;;21.20;99217.00;;;;2095720;28;20235;-51
2023/03/23 01:59:17;;;;;;;4.05;2.97;;;;;21.20;99211.00;;;;2094330;28;20204;-51
2023/03/23 02:00:18;;;;;;;3.50;2.53;;;;;21.20;99226.00;;;;2086023;28;20213;-52
2023/03/23 02:01:18;;;;;;;2.50;2.30;;;;;21.20;99217.00;;;;2093641;28;20287;-51
2023/03/23 02:02:20;;;;;;;3.40;3.10;;;;;21.20;99210.00;;;;2094162;28;20254;-52
2023/03/23 02:03:23;;;;;;;2.85;2.40;;;;;21.20;99186.00;;;;2086170;28;20219;-52
2023/03/23 02:04:23;;;;;;;3.45;2.50;;;;;21.20;99179.00;;;;2086446;28;20280;-51
2023/03/23 02:05:31;;;;;;;3.90;2.30;;;;;21.20;99186.00;;;;2085493;28;20215;-52
2023/03/23 02:06:32;;;;;;;2.58;2.08;;;;;21.20;99182.00;;;;2086327;28;20267;-51
2023/03/23 02:07:32;;;;;;;3.50;2.43;;;;;21.20;99191.00;;;;2094342;28;20231;-51
2023/03/23 02:08:32;;;;;;;3.17;2.50;;;;;21.20;99198.00;;;;2086269;28;20668;-51
2023/03/23 02:09:33;;;;;;;3.30;2.27;;;;;21.20;99201.00;;;;2085843;28;20213;-51
2023/03/23 02:10:33;;;;;;;3.17;2.13;;;;;21.20;99225.00;;;;2103085;28;20223;-51
2023/03/23 02:11:34;;;;;;;3.17;2.30;;;;;21.20;99238.00;;;;2102483;28;20215;-51
2023/03/23 02:12:34;;;;;;;2.83;2.40;;;;;21.20;99238.00;;;;2102941;28;20207;-52
2023/03/23 02:13:34;;;;;;;3.40;2.20;;;;;21.20;99230.00;;;;2102926;28;20225;-51
2023/03/23 02:14:35;;;;;;;3.07;2.10;;;;;21.20;99225.00;;;;2103232;28;20215;-51
2023/03/23 02:15:45;;;;;;;3.10;2.50;;;;;21.10;99222.00;;;;2102327;28;20215;-51
2023/03/23 02:17:10;;;;;;;2.25;2.05;;;;;21.10;99237.00;;;;2094215;28;20251;-52
2023/03/23 02:18:17;;;;;;;2.10;1.85;;;;;21.20;99215.00;;;;2089714;28;20304;-51
2023/03/23 02:19:23;;;;;;;2.58;2.10;;;;;21.10;99239.00;;;;2086670;28;20562;-52
2023/03/23 02:20:35;;;;;;;3.80;2.25;;;;;21.10;99240.00;;;;2095503;28;20216;-51
2023/03/23 02:21:53;;;;;;;2.72;2.00;;;;;21.10;99247.00;;;;2093608;28;20573;-51
2023/03/23 02:23:06;;;;;;;2.17;1.98;;;;;21.20;99251.00;;;;2097622;28;20223;-51
2023/03/23 02:24:21;;;;;;;2.47;2.10;;;;;21.10;99246.00;;;;2102782;28;20239;-51
2023/03/23 02:25:40;;;;;;;2.90;2.20;;;;;21.10;99236.00;;;;2102007;28;20678;-51
2023/03/23 02:26:57;;;;;;;3.05;1.95;;;;;21.10;99226.00;;;;2102966;28;20577;-52
2023/03/23 02:28:15;;;;;;;2.00;1.75;;;;;21.10;99230.00;;;;2085768;28;20221;-51
2023/03/23 02:29:37;;;;;;;1.70;1.60;;;;;21.10;99233.00;;;;2091968;28;20240;-51
2023/03/23 02:31:06;;;;;;;2.00;1.80;;;;;21.10;99203.00;;;;2102843;28;20365;-51
2023/03/23 02:32:21;;;;;;;2.10;1.80;;;;;21.10;99219.00;;;;2093945;28;20215;-51
2023/03/23 02:33:28;;;;;;;2.25;1.73;;;;;21.10;99209.00;;;;2090538;28;20219;-51
2023/03/23 02:34:41;;;;;;;2.58;2.38;;;;;21.10;99215.00;;;;2094791;28;20204;-51
2023/03/23 02:35:47;;;;;;;2.05;1.60;;;;;21.10;99211.00;;;;2085528;28;20205;-51
2023/03/23 02:36:52;;;;;;;2.38;2.03;;;;;21.10;99204.00;;;;2087260;28;20217;-51
2023/03/23 02:37:58;;;;;;;2.00;1.80;;;;;21.10;99200.00;;;;2086868;28;20315;-51
2023/03/23 02:38:58;;;;;;;2.00;1.60;;;;;21.10;99205.00;;;;2086656;28;20299;-52
2023/03/23 02:40:14;;;;;;;1.87;1.73;;;;;21.10;99208.00;;;;2094107;28;20291;-52
2023/03/23 02:41:15;;;;;;;2.70;2.00;;;;;21.10;99213.00;;;;2085596;28;20320;-51
2023/03/23 02:42:17;;;;;;;2.20;2.00;;;;;21.10;99202.00;;;;2087234;28;20759;-51
2023/03/23 02:43:19;;;;;;;1.90;1.42;;;;;21.10;99194.00;;;;2085844;28;20212;-51
2023/03/23 02:44:19;;;;;;;1.80;1.70;;;;;21.10;99196.00;;;;2085921;28;20208;-51
2023/03/23 02:45:20;;;;;;;2.53;1.93;;;;;21.10;99206.00;;;;2093271;28;20220;-51
2023/03/23 02:46:20;;;;;;;1.97;1.70;;;;;21.10;99198.00;;;;2093777;28;20222;-51
2023/03/23 02:47:23;;;;;;;3.03;1.90;;;;;21.10;99193.00;;;;2086002;28;20490;-51
2023/03/23 02:48:25;;;;;;;1.80;1.50;;;;;21.10;99197.00;;;;2094253;28;20218;-51
2023/03/23 02:49:25;;;;;;;1.60;1.50;;;;;21.10;99188.00;;;;2085923;28;20216;-55
2023/03/23 02:50:26;;;;;;;2.83;1.70;;;;;21.10;99185.00;;;;2077610;28;20209;-52
2023/03/23 02:51:26;;;;;;;2.17;1.67;;;;;21.10;99165.00;;;;2077302;28;20206;-52
2023/03/23 02:52:29;;;;;;;1.60;1.50;;;;;21.10;99179.00;;;;2077557;28;20319;-52
2023/03/23 02:53:29;;;;;;;2.38;1.80;;;;;21.10;99173.00;;;;2070074;28;20210;-51
2023/03/23 02:54:29;;;;;;;1.77;1.60;;;;;21.10;99172.00;;;;2077759;28;20205;-51
2023/03/23 02:55:30;;;;;;;2.30;1.80;;;;;21.10;99167.00;;;;2092676;28;20205;-51
2023/03/23 02:56:32;;;;;;;3.07;1.60;;;;;21.10;99178.00;;;;2085613;28;20224;-52
2023/03/23 02:57:33;;;;;;;1.50;1.40;;;;;21.10;99180.00;;;;2086014;28;20206;-51
2023/03/23 02:58:33;;;;;;;2.60;1.57;;;;;21.10;99175.00;;;;2093937;28;20223;-51
2023/03/23 02:59:33;;;;;;;1.80;1.40;;;;;21.10;99181.00;;;;2094077;28;20203;-51
2023/03/23 03:00:34;;;;;;;2.00;1.80;;;;;21.10;99174.00;;;;2103048;28;20211;-51
2023/03/23 03:01:37;;;;;;;1.90;1.63;;;;;21.10;99184.00;;;;2093771;28;20201;-51
2023/03/23 03:02:40;;;;;;;2.33;1.90;;;;;21.10;99196.00;;;;2094177;28;20220;-51
2023/03/23 03:03:40;;;;;;;2.17;1.70;;;;;21.10;99200.00;;;;2085692;28;20220;-51
2023/03/23 03:04:41;;;;;;;1.43;1.33;;;;;21.10;99199.00;;;;2085543;28;20296;-51
2023/03/23 03:06:32;;;;;;;2.05;1.60;;;;;21.10;99196.00;;;;2084929;28;20267;-51
2023/03/23 03:07:35;;;;;;;2.33;1.77;;;;;21.10;99196.00;;;;2060653;28;20321;-51
2023/03/23 03:08:44;;;;;;;2.72;1.33;;;;;21.10;99192.00;;;;2060723;28;20285;-51
2023/03/23 03:09:55;;;;;;;3.58;1.60;;;;;21.00;99204.00;;;;2073447;28;20702;-51
2023/03/23 03:10:59;;;;;;;3.22;1.70;;;;;21.10;99202.00;;;;2104618;28;20635;-51
2023/03/23 03:12:04;;;;;;;2.03;1.58;;;;;21.00;99211.00;;;;2087042;28;20676;-51
2023/03/23 03:13:35;;;;;;;1.70;1.38;;;;;21.00;99203.00;;;;2088192;28;20221;-51
2023/03/23 03:14:57;;;;;;;1.85;1.65;;;;;21.00;99202.00;;;;2104218;28;20694;-51
2023/03/23 03:16:19;;;;;;;2.70;1.60;;;;;21.00;99202.00;;;;2103851;28;20227;-51
2023/03/23 03:17:26;;;;;;;2.20;2.00;;;;;21.00;99194.00;;;;2095760;28;20615;-51
2023/03/23 03:18:32;;;;;;;1.90;1.70;;;;;21.00;99199.00;;;;2087625;28;20213;-53
2023/03/23 03:19:35;;;;;;;1.75;1.52;;;;;21.10;99202.00;;;;2087974;28;20696;-51
2023/03/23 03:20:37;;;;;;;2.58;1.48;;;;;21.10;99201.00;;;;2087536;28;20205;-51
2023/03/23 03:21:42;;;;;;;1.80;1.50;;;;;20.80;99195.00;;;;2087160;28;20201;-51
2023/03/23 03:22:43;;;;;;;2.63;1.60;;;;;21.00;99198.00;;;;2087624;28;20715;-51
2023/03/23 03:23:43;;;;;;;2.10;1.50;;;;;21.00;99197.00;;;;2095060;28;20212;-51
2023/03/23 03:24:44;;;;;;;1.87;1.37;;;;;21.00;99198.00;;;;2087495;28;20209;-51
2023/03/23 03:25:47;;;;;;;4.10;1.53;;;;;21.00;99184.00;;;;2094499;28;20629;-51
2023/03/23 03:26:49;;;;;;;3.05;1.50;;;;;21.00;99194.00;;;;2087007;28;20216;-51
2023/03/23 03:27:52;;;;;;;2.38;1.85;;;;;21.00;99195.00;;;;2087785;28;20679;-51
2023/03/23 03:28:52;;;;;;;1.80;1.55;;;;;21.00;99195.00;;;;2086867;28;20696;-51
2023/03/23 03:29:58;;;;;;;2.00;1.77;;;;;21.00;99187.00;;;;2087984;28;20258;-51
2023/03/23 03:31:00;;;;;;;2.58;1.50;;;;;21.00;99180.00;;;;2094695;28;20454;-52
2023/03/23 03:32:01;;;;;;;2.13;1.60;;;;;21.00;99189.00;;;;2087424;28;20611;-51
2023/03/23 03:33:03;;;;;;;2.30;1.67;;;;;21.00;99187.00;;;;2087638;28;20271;-51
2023/03/23 03:34:03;;;;;;;2.03;1.42;;;;;21.00;99181.00;;;;2078940;28;20226;-51
2023/03/23 03:35:05;;;;;;;1.90;1.73;;;;;21.00;99182.00;;;;2078567;28;20617;-51
2023/03/23 03:36:09;;;;;;;1.63;1.52;;;;;21.00;99171.00;;;;2087374;28;20284;-51
2023/03/23 03:37:11;;;;;;;1.73;1.58;;;;;21.00;99182.00;;;;2087557;28;20266;-51
2023/03/23 03:38:11;;;;;;;2.08;1.88;;;;;21.00;99182.00;;;;2079252;28;20216;-51
2023/03/23 03:39:14;;;;;;;2.47;1.60;;;;;21.00;99181.00;;;;2087710;28;20201;-51
2023/03/23 03:40:16;;;;;;;2.08;1.50;;;;;21.00;99182.00;;;;2104364;28;20740;-51
2023/03/23 03:41:17;;;;;;;1.65;1.55;;;;;21.00;99183.00;;;;2104414;28;20637;-51
2023/03/23 03:42:17;;;;;;;2.73;1.80;;;;;21.00;99188.00;;;;2103913;28;20262;-51
2023/03/23 03:43:18;;;;;;;2.13;1.43;;;;;21.00;99186.00;;;;2104442;28;20239;-51
2023/03/23 03:44:18;;;;;;;2.43;1.60;;;;;21.00;99178.00;;;;2095331;28;20216;-51
2023/03/23 03:45:19;;;;;;;1.80;1.40;;;;;21.00;99175.00;;;;2094497;28;20212;-51
2023/03/23 03:46:19;;;;;;;2.40;1.50;;;;;21.00;99175.00;;;;2104151;28;20701;-51
2023/03/23 03:47:19;;;;;;;1.57;1.27;;;;;21.00;99180.00;;;;2104239;28;20461;-51
2023/03/23 03:48:20;;;;;;;2.87;1.70;;;;;21.00;99178.00;;;;2104011;28;20212;-51
2023/03/23 03:49:20;;;;;;;2.60;1.73;;;;;21.00;99181.00;;;;2104363;28;20219;-51
2023/03/23 03:50:21;;;;;;;1.80;1.50;;;;;21.00;99173.00;;;;2104358;28;20219;-51
2023/03/23 03:51:21;;;;;;;2.03;1.53;;;;;21.00;99183.00;;;;2104047;28;20708;-51
2023/03/23 03:52:21;;;;;;;1.50;1.40;;;;;20.90;99185.00;;;;2104052;28;20229;-51
2023/03/23 03:53:26;;;;;;;1.90;1.50;;;;;20.90;99188.00;;;;2103641;28;20219;-51
2023/03/23 03:54:26;;;;;;;1.80;1.50;;;;;21.00;99182.00;;;;2104018;28;20257;-54
2023/03/23 03:55:27;;;;;;;1.93;1.43;;;;;21.00;99185.00;;;;2103378;28;20268;-53
2023/03/23 03:56:28;;;;;;;1.95;1.63;;;;;21.00;99175.00;;;;2104087;28;20220;-52
2023/03/23 03:57:28;;;;;;;1.90;1.53;;;;;21.00;99184.00;;;;2104064;28;20211;-51
2023/03/23 03:58:31;;;;;;;1.50;1.37;;;;;21.00;99186.00;;;;2104173;28;20259;-52
2023/03/23 03:59:32;;;;;;;2.20;1.38;;;;;21.00;99183.00;;;;2104105;28;20242;-52
2023/03/23 04:00:32;;;;;;;1.77;1.55;;;;;21.00;99176.00;;;;2104208;28;20207;-51
2023/03/23 04:01:33;;;;;;;1.80;1.40;;;;;21.00;99173.00;;;;2104052;28;20355;-51
2023/03/23 04:02:33;;;;;;;2.40;1.50;;;;;20.90;99171.00;;;;2103603;28;20234;-51
2023/03/23 04:03:33;;;;;;;1.70;1.33;;;;;21.00;99148.00;;;;2104154;28;20198;-51
2023/03/23 04:04:34;;;;;;;2.87;1.73;;;;;20.90;99172.00;;;;2103948;28;20211;-51
2023/03/23 04:05:36;;;;;;;2.20;1.60;;;;;20.90;99181.00;;;;2103225;28;20630;-51
2023/03/23 04:06:37;;;;;;;1.77;1.38;;;;;20.90;99177.00;;;;2104189;28;20210;-51
2023/03/23 04:07:38;;;;;;;1.77;1.60;;;;;20.90;99180.00;;;;2103919;28;20227;-51
2023/03/23 04:08:38;;;;;;;1.90;1.47;;;;;21.00;99185.00;;;;2104166;28;20200;-51
2023/03/23 04:09:48;;;;;;;2.00;1.70;;;;;20.90;99179.00;;;;2103812;28;20283;-51
2023/03/23 04:10:48;;;;;;;1.70;1.40;;;;;21.00;99179.00;;;;2104153;28;21007;-51
2023/03/23 04:11:49;;;;;;;1.63;1.40;;;;;21.00;99180.00;;;;2103792;28;20215;-51
2023/03/23 04:12:49;;;;;;;2.57;1.57;;;;;21.00;99183.00;;;;2103981;28;20699;-51
2023/03/23 04:13:50;;;;;;;1.87;1.57;;;;;21.00;99192.00;;;;2104183;28;20792;-51
2023/03/23 04:14:50;;;;;;;1.90;1.67;;;;;21.00;99182.00;;;;2104095;28;20216;-51
2023/03/23 04:15:51;;;;;;;1.80;1.60;;;;;21.00;99171.00;;;;2102839;28;20283;-51
2023/03/23 04:16:56;;;;;;;2.30;1.70;;;;;20.90;99178.00;;;;2103933;28;20239;-51
2023/03/23 04:17:57;;;;;;;2.35;1.67;;;;;21.00;99185.00;;;;2103915;28;20208;-52
2023/03/23 04:18:57;;;;;;;2.60;1.37;;;;;21.00;99181.00;;;;2104161;28;20243;-52
2023/03/23 04:19:59;;;;;;;1.97;1.67;;;;;20.90;99179.00;;;;2104132;28;20250;-52
2023/03/23 04:20:59;;;;;;;1.92;1.40;;;;;20.90;99184.00;;;;2103665;28;20978;-51
2023/03/23 04:21:59;;;;;;;2.27;1.27;;;;;20.90;99186.00;;;;2103564;28;20227;-51
2023/03/23 04:23:00;;;;;;;1.30;1.20;;;;;20.90;99180.00;;;;2103878;28;20627;-52
2023/03/23 04:24:00;;;;;;;1.57;1.30;;;;;20.90;99186.00;;;;2103973;28;20208;-51
2023/03/23 04:25:04;;;;;;;1.50;1.10;;;;;20.90;99173.00;;;;2103189;28;20439;-51
2023/03/23 04:26:04;;;;;;;1.50;1.10;;;;;20.90;99179.00;;;;2103880;28;20215;-51
2023/03/23 04:27:04;;;;;;;1.60;1.30;;;;;20.90;99179.00;;;;2103874;28;20223;-51
2023/03/23 04:28:05;;;;;;;2.30;1.43;;;;;20.90;99184.00;;;;2104091;28;20239;-51
2023/03/23 04:29:06;;;;;;;1.97;1.50;;;;;20.90;99171.00;;;;2104001;28;20208;-51
2023/03/23 04:30:07;;;;;;;1.20;1.10;;;;;20.90;99186.00;;;;2104072;28;20219;-51
2023/03/23 04:31:08;;;;;;;1.42;1.20;;;;;20.90;99191.00;;;;2103642;28;20269;-51
2023/03/23 04:32:09;;;;;;;2.55;1.70;;;;;20.90;99182.00;;;;2103475;28;20214;-51
2023/03/23 04:33:14;;;;;;;2.00;1.40;;;;;21.00;99190.00;;;;2103804;28;20218;-51
2023/03/23 04:34:14;;;;;;;1.38;1.17;;;;;20.90;99180.00;;;;2103986;28;20272;-51
2023/03/23 04:35:14;;;;;;;2.03;1.30;;;;;20.90;99186.00;;;;2103087;28;20691;-51
2023/03/23 04:36:15;;;;;;;1.73;1.13;;;;;20.90;99188.00;;;;2103241;28;20238;-51
2023/03/23 04:37:16;;;;;;;2.60;1.40;;;;;20.90;99185.00;;;;2103924;28;20221;-51
2023/03/23 04:38:16;;;;;;;1.40;1.27;;;;;20.90;99188.00;;;;2103731;28;20446;-51
2023/03/23 04:39:17;;;;;;;1.80;1.33;;;;;20.90;99194.00;;;;2103771;28;20212;-51
2023/03/23 04:40:18;;;;;;;1.90;1.35;;;;;20.90;99200.00;;;;2103854;28;20291;-51
2023/03/23 04:41:18;;;;;;;1.70;1.27;;;;;20.90;99194.00;;;;2103762;28;20204;-51
2023/03/23 04:42:21;;;;;;;1.30;1.20;;;;;20.90;99188.00;;;;2103612;28;20211;-51
2023/03/23 04:43:22;;;;;;;1.95;1.58;;;;;20.90;99203.00;;;;2103474;28;20211;-51
2023/03/23 04:44:22;;;;;;;2.13;1.60;;;;;20.90;99194.00;;;;2103615;28;20571;-51
2023/03/23 04:45:23;;;;;;;1.10;1.00;;;;;20.90;99197.00;;;;2103106;28;20446;-51
2023/03/23 04:46:28;;;;;;;1.30;0.97;;;;;20.90;99199.00;;;;2103632;28;20223;-51
2023/03/23 04:47:31;;;;;;;2.30;1.35;;;;;20.90;99202.00;;;;2103396;28;20204;-51
2023/03/23 04:48:33;;;;;;;7.93;1.70;;;;;21.00;99198.00;;;;2103847;28;20574;-51
2023/03/23 04:49:33;;;;;;;2.35;1.10;;;;;21.00;99192.00;;;;2103560;28;20220;-51
2023/03/23 04:50:33;;;;;;;4.70;1.10;;;;;21.00;99195.00;;;;2103513;28;20203;-51
2023/03/23 04:51:35;;;;;;;2.40;1.23;;;;;21.00;99189.00;;;;2103662;28;20280;-51
2023/03/23 04:52:37;;;;;;;2.33;1.33;;;;;20.70;99194.00;;;;2103668;28;20230;-51
2023/03/23 04:53:37;;;;;;;1.63;1.35;;;;;21.00;99189.00;;;;2103878;28;20241;-51
2023/03/23 04:54:38;;;;;;;2.30;1.00;;;;;21.00;99190.00;;;;2103593;28;20679;-51
2023/03/23 04:55:38;;;;;;;2.00;1.43;;;;;21.00;99192.00;;;;2102760;28;20703;-51
2023/03/23 04:56:38;;;;;;;1.43;1.10;;;;;21.00;99199.00;;;;2103273;28;20238;-51
2023/03/23 04:57:40;;;;;;;1.70;1.17;;;;;21.00;99191.00;;;;2103938;28;20253;-51
2023/03/23 04:58:40;;;;;;;3.08;1.27;;;;;21.00;99185.00;;;;2103050;28;20737;-51
2023/03/23 04:59:42;;;;;;;1.87;1.67;;;;;21.00;99190.00;;;;2103948;28;20196;-51
2023/03/23 05:00:49;;;;;;;1.10;0.90;;;;;21.00;99192.00;;;;2103246;28;21090;-51
2023/03/23 05:01:49;;;;;;;2.53;1.40;;;;;21.10;99199.00;;;;2103612;28;20216;-51
2023/03/23 05:02:51;;;;;;;2.10;1.30;;;;;21.10;99202.00;;;;2103494;28;20220;-51
2023/03/23 05:03:51;;;;;;;5.20;1.27;;;;;21.10;99205.00;;;;2103801;28;20215;-51
2023/03/23 05:04:52;;;;;;;1.97;1.20;;;;;21.00;99204.00;;;;2103774;28;20309;-51
2023/03/23 05:05:53;;;;;;;1.73;1.20;;;;;21.00;99198.00;;;;2093551;28;20219;-50
2023/03/23 05:06:53;;;;;;;1.97;1.40;;;;;21.00;99202.00;;;;2094935;28;20458;-51
2023/03/23 05:07:53;;;;;;;2.00;1.33;;;;;21.00;99197.00;;;;2103775;28;20682;-51
2023/03/23 05:08:54;;;;;;;2.50;1.23;;;;;21.00;99194.00;;;;2103749;28;20699;-51
2023/03/23 05:09:55;;;;;;;1.80;1.57;;;;;21.00;99195.00;;;;2103728;28;20687;-51
2023/03/23 05:10:56;;;;;;;4.20;1.13;;;;;20.90;99196.00;;;;2103514;28;20503;-51
2023/03/23 05:11:59;;;;;;;1.67;1.15;;;;;20.90;99200.00;;;;2103181;28;20223;-51
2023/03/23 05:12:59;;;;;;;4.18;1.52;;;;;20.90;99216.00;;;;2102791;28;20243;-51
2023/03/23 05:14:00;;;;;;;2.03;1.13;;;;;20.90;99212.00;;;;2103693;28;20225;-51
2023/03/23 05:15:00;;;;;;;1.30;1.20;;;;;20.90;99220.00;;;;2103241;28;20212;-51